sensor_id;sensor_type;location;lat;lon;timestamp;P1;durP1;ratioP1;P2;durP2;ratioP2
8572;SDS011;4324;42.012;24.872;2023-08-21T00:02:19;9.70;;;8.90;;
8572;SDS011;4324;42.012;24.872;2023-08-21T00:04:46;9.33;;;8.47;;
8572;SDS011;4324;42.012;24.872;2023-08-21T00:07:13;9.30;;;8.50;;
8572;SDS011;4324;42.012;24.872;2023-08-21T00:09:41;9.10;;;8.40;;
8572;SDS011;4324;42.012;24.872;2023-08-21T00:12:09;9.20;;;8.40;;
8572;SDS011;4324;42.012;24.872;2023-08-21T00:14:36;8.33;;;7.70;;
8572;SDS011;4324;42.012;24.872;2023-08-21T00:17:03;9.03;;;8.23;;
8572;SDS011;4324;42.012;24.872;2023-08-21T00:19:31;9.30;;;8.50;;
8572;SDS011;4324;42.012;24.872;2023-08-21T00:21:59;9.00;;;8.20;;
8572;SDS011;4324;42.012;24.872;2023-08-21T00:24:26;8.60;;;7.80;;
8572;SDS011;4324;42.012;24.872;2023-08-21T00:26:53;8.70;;;7.90;;
8572;SDS011;4324;42.012;24.872;2023-08-21T00:29:21;8.90;;;8.00;;
8572;SDS011;4324;42.012;24.872;2023-08-21T00:31:48;8.90;;;7.93;;
8572;SDS011;4324;42.012;24.872;2023-08-21T00:34:15;9.03;;;8.20;;
8572;SDS011;4324;42.012;24.872;2023-08-21T00:36:45;8.47;;;7.67;;
8572;SDS011;4324;42.012;24.872;2023-08-21T00:39:12;9.20;;;8.30;;
8572;SDS011;4324;42.012;24.872;2023-08-21T00:41:39;8.90;;;8.00;;
8572;SDS011;4324;42.012;24.872;2023-08-21T00:44:06;9.17;;;8.37;;
8572;SDS011;4324;42.012;24.872;2023-08-21T00:46:34;8.73;;;7.93;;
8572;SDS011;4324;42.012;24.872;2023-08-21T00:49:01;8.60;;;7.90;;
8572;SDS011;4324;42.012;24.872;2023-08-21T00:51:28;9.27;;;8.37;;
8572;SDS011;4324;42.012;24.872;2023-08-21T00:53:55;8.87;;;8.10;;
8572;SDS011;4324;42.012;24.872;2023-08-21T00:56:23;8.97;;;8.27;;
8572;SDS011;4324;42.012;24.872;2023-08-21T00:58:50;8.97;;;8.07;;
8572;SDS011;4324;42.012;24.872;2023-08-21T01:01:17;8.23;;;7.50;;
8572;SDS011;4324;42.012;24.872;2023-08-21T01:03:47;9.00;;;8.30;;
8572;SDS011;4324;42.012;24.872;2023-08-21T01:06:14;8.87;;;8.20;;
8572;SDS011;4324;42.012;24.872;2023-08-21T01:08:46;8.73;;;7.93;;
8572;SDS011;4324;42.012;24.872;2023-08-21T01:11:25;9.73;;;8.87;;
8572;SDS011;4324;42.012;24.872;2023-08-21T01:14:00;8.83;;;8.13;;
8572;SDS011;4324;42.012;24.872;2023-08-21T01:16:36;8.93;;;8.13;;
8572;SDS011;4324;42.012;24.872;2023-08-21T01:19:05;8.87;;;7.77;;
8572;SDS011;4324;42.012;24.872;2023-08-21T01:21:50;8.87;;;8.17;;
8572;SDS011;4324;42.012;24.872;2023-08-21T01:24:20;8.77;;;8.00;;
8572;SDS011;4324;42.012;24.872;2023-08-21T01:26:47;8.80;;;8.00;;
8572;SDS011;4324;42.012;24.872;2023-08-21T01:29:14;8.77;;;7.97;;
8572;SDS011;4324;42.012;24.872;2023-08-21T01:31:41;9.53;;;8.63;;
8572;SDS011;4324;42.012;24.872;2023-08-21T01:34:13;9.37;;;8.50;;
8572;SDS011;4324;42.012;24.872;2023-08-21T01:36:42;9.47;;;8.67;;
8572;SDS011;4324;42.012;24.872;2023-08-21T01:39:10;10.83;;;8.37;;
8572;SDS011;4324;42.012;24.872;2023-08-21T01:41:38;8.77;;;8.07;;
8572;SDS011;4324;42.012;24.872;2023-08-21T01:44:05;8.77;;;7.97;;
8572;SDS011;4324;42.012;24.872;2023-08-21T01:46:32;8.83;;;8.10;;
8572;SDS011;4324;42.012;24.872;2023-08-21T01:49:00;8.83;;;8.03;;
8572;SDS011;4324;42.012;24.872;2023-08-21T01:51:27;9.53;;;8.73;;
8572;SDS011;4324;42.012;24.872;2023-08-21T01:53:53;9.87;;;8.87;;
8572;SDS011;4324;42.012;24.872;2023-08-21T01:56:20;8.43;;;7.70;;
8572;SDS011;4324;42.012;24.872;2023-08-21T01:58:49;8.57;;;7.97;;
8572;SDS011;4324;42.012;24.872;2023-08-21T02:01:18;10.43;;;9.63;;
8572;SDS011;4324;42.012;24.872;2023-08-21T02:03:45;11.73;;;10.47;;
8572;SDS011;4324;42.012;24.872;2023-08-21T02:06:12;10.33;;;9.43;;
8572;SDS011;4324;42.012;24.872;2023-08-21T02:08:39;9.43;;;8.57;;
8572;SDS011;4324;42.012;24.872;2023-08-21T02:11:09;9.13;;;8.23;;
8572;SDS011;4324;42.012;24.872;2023-08-21T02:13:36;9.77;;;8.80;;
8572;SDS011;4324;42.012;24.872;2023-08-21T02:16:04;8.83;;;7.93;;
8572;SDS011;4324;42.012;24.872;2023-08-21T02:18:31;15.10;;;9.13;;
8572;SDS011;4324;42.012;24.872;2023-08-21T02:21:01;17.47;;;9.23;;
8572;SDS011;4324;42.012;24.872;2023-08-21T02:23:28;13.50;;;8.60;;
8572;SDS011;4324;42.012;24.872;2023-08-21T02:25:56;9.43;;;8.63;;
8572;SDS011;4324;42.012;24.872;2023-08-21T02:28:22;8.77;;;8.10;;
8572;SDS011;4324;42.012;24.872;2023-08-21T02:30:52;9.17;;;8.47;;
8572;SDS011;4324;42.012;24.872;2023-08-21T02:33:21;9.53;;;8.77;;
8572;SDS011;4324;42.012;24.872;2023-08-21T02:35:48;9.00;;;8.10;;
8572;SDS011;4324;42.012;24.872;2023-08-21T02:38:16;9.03;;;8.17;;
8572;SDS011;4324;42.012;24.872;2023-08-21T02:40:43;9.80;;;8.80;;
8572;SDS011;4324;42.012;24.872;2023-08-21T02:43:10;8.73;;;7.90;;
8572;SDS011;4324;42.012;24.872;2023-08-21T02:45:38;8.90;;;8.10;;
8572;SDS011;4324;42.012;24.872;2023-08-21T02:48:05;10.20;;;8.10;;
8572;SDS011;4324;42.012;24.872;2023-08-21T02:50:34;10.97;;;8.43;;
8572;SDS011;4324;42.012;24.872;2023-08-21T02:53:01;9.43;;;8.60;;
8572;SDS011;4324;42.012;24.872;2023-08-21T02:55:28;8.10;;;7.50;;
8572;SDS011;4324;42.012;24.872;2023-08-21T02:57:55;10.90;;;7.73;;
8572;SDS011;4324;42.012;24.872;2023-08-21T03:00:21;8.37;;;7.67;;
8572;SDS011;4324;42.012;24.872;2023-08-21T03:02:48;12.53;;;9.40;;
8572;SDS011;4324;42.012;24.872;2023-08-21T03:05:15;8.13;;;7.50;;
8572;SDS011;4324;42.012;24.872;2023-08-21T03:07:47;9.17;;;8.23;;
8572;SDS011;4324;42.012;24.872;2023-08-21T03:10:14;8.73;;;7.90;;
8572;SDS011;4324;42.012;24.872;2023-08-21T03:12:41;9.50;;;8.20;;
8572;SDS011;4324;42.012;24.872;2023-08-21T03:15:11;9.00;;;8.20;;
8572;SDS011;4324;42.012;24.872;2023-08-21T03:17:38;9.20;;;8.07;;
8572;SDS011;4324;42.012;24.872;2023-08-21T03:20:10;9.40;;;8.50;;
8572;SDS011;4324;42.012;24.872;2023-08-21T03:22:37;8.83;;;8.03;;
8572;SDS011;4324;42.012;24.872;2023-08-21T03:25:06;10.43;;;7.50;;
8572;SDS011;4324;42.012;24.872;2023-08-21T03:27:33;8.53;;;7.83;;
8572;SDS011;4324;42.012;24.872;2023-08-21T03:30:10;9.13;;;8.30;;
8572;SDS011;4324;42.012;24.872;2023-08-21T03:32:40;8.73;;;7.87;;
8572;SDS011;4324;42.012;24.872;2023-08-21T03:35:09;7.57;;;6.97;;
8572;SDS011;4324;42.012;24.872;2023-08-21T03:37:36;9.07;;;8.07;;
8572;SDS011;4324;42.012;24.872;2023-08-21T03:40:03;8.50;;;7.73;;
8572;SDS011;4324;42.012;24.872;2023-08-21T03:42:32;9.17;;;8.27;;
8572;SDS011;4324;42.012;24.872;2023-08-21T03:44:59;10.40;;;7.63;;
8572;SDS011;4324;42.012;24.872;2023-08-21T03:47:29;9.80;;;8.90;;
8572;SDS011;4324;42.012;24.872;2023-08-21T03:50:08;8.97;;;8.17;;
8572;SDS011;4324;42.012;24.872;2023-08-21T03:52:47;9.17;;;8.40;;
8572;SDS011;4324;42.012;24.872;2023-08-21T03:55:14;9.00;;;8.30;;
8572;SDS011;4324;42.012;24.872;2023-08-21T03:57:42;8.80;;;8.10;;
8572;SDS011;4324;42.012;24.872;2023-08-21T04:00:16;9.23;;;8.00;;
8572;SDS011;4324;42.012;24.872;2023-08-21T04:02:42;8.60;;;7.77;;
8572;SDS011;4324;42.012;24.872;2023-08-21T04:05:17;12.20;;;8.27;;
8572;SDS011;4324;42.012;24.872;2023-08-21T04:08:10;9.17;;;8.27;;
8572;SDS011;4324;42.012;24.872;2023-08-21T04:10:53;10.27;;;8.80;;
8572;SDS011;4324;42.012;24.872;2023-08-21T04:13:37;9.87;;;8.57;;
8572;SDS011;4324;42.012;24.872;2023-08-21T04:22:55;9.30;;;7.70;;
8572;SDS011;4324;42.012;24.872;2023-08-21T04:25:22;11.73;;;8.80;;
8572;SDS011;4324;42.012;24.872;2023-08-21T04:27:49;9.23;;;8.30;;
8572;SDS011;4324;42.012;24.872;2023-08-21T04:30:18;8.30;;;7.60;;
8572;SDS011;4324;42.012;24.872;2023-08-21T04:32:46;8.37;;;7.57;;
8572;SDS011;4324;42.012;24.872;2023-08-21T04:35:14;9.83;;;7.40;;
8572;SDS011;4324;42.012;24.872;2023-08-21T04:37:43;8.50;;;7.70;;
8572;SDS011;4324;42.012;24.872;2023-08-21T04:40:12;8.60;;;7.83;;
8572;SDS011;4324;42.012;24.872;2023-08-21T04:42:40;8.60;;;7.80;;
8572;SDS011;4324;42.012;24.872;2023-08-21T04:45:07;8.67;;;7.80;;
8572;SDS011;4324;42.012;24.872;2023-08-21T04:47:37;19.20;;;8.60;;
8572;SDS011;4324;42.012;24.872;2023-08-21T04:50:04;32.97;;;10.57;;
8572;SDS011;4324;42.012;24.872;2023-08-21T04:52:35;8.90;;;8.03;;
8572;SDS011;4324;42.012;24.872;2023-08-21T04:55:06;9.80;;;8.80;;
8572;SDS011;4324;42.012;24.872;2023-08-21T04:57:34;9.47;;;8.57;;
8572;SDS011;4324;42.012;24.872;2023-08-21T05:03:11;8.40;;;7.53;;
8572;SDS011;4324;42.012;24.872;2023-08-21T05:05:54;8.67;;;7.27;;
8572;SDS011;4324;42.012;24.872;2023-08-21T05:08:25;9.27;;;8.03;;
8572;SDS011;4324;42.012;24.872;2023-08-21T05:11:07;10.40;;;8.73;;
8572;SDS011;4324;42.012;24.872;2023-08-21T05:13:34;8.57;;;7.67;;
8572;SDS011;4324;42.012;24.872;2023-08-21T05:16:01;7.50;;;6.80;;
8572;SDS011;4324;42.012;24.872;2023-08-21T05:18:30;8.67;;;7.87;;
8572;SDS011;4324;42.012;24.872;2023-08-21T05:20:57;7.93;;;7.13;;
8572;SDS011;4324;42.012;24.872;2023-08-21T05:23:24;7.83;;;7.13;;
8572;SDS011;4324;42.012;24.872;2023-08-21T05:25:51;9.33;;;7.80;;
8572;SDS011;4324;42.012;24.872;2023-08-21T05:28:18;7.97;;;7.23;;
8572;SDS011;4324;42.012;24.872;2023-08-21T05:30:46;7.97;;;7.20;;
8572;SDS011;4324;42.012;24.872;2023-08-21T05:33:14;8.60;;;7.77;;
8572;SDS011;4324;42.012;24.872;2023-08-21T05:35:42;8.47;;;7.30;;
8572;SDS011;4324;42.012;24.872;2023-08-21T05:38:09;11.17;;;8.03;;
8572;SDS011;4324;42.012;24.872;2023-08-21T05:40:36;8.67;;;7.87;;
8572;SDS011;4324;42.012;24.872;2023-08-21T05:43:03;7.77;;;7.17;;
8572;SDS011;4324;42.012;24.872;2023-08-21T05:45:30;7.50;;;6.80;;
8572;SDS011;4324;42.012;24.872;2023-08-21T05:47:57;7.87;;;7.13;;
8572;SDS011;4324;42.012;24.872;2023-08-21T05:50:24;8.07;;;7.30;;
8572;SDS011;4324;42.012;24.872;2023-08-21T05:52:52;8.53;;;7.73;;
8572;SDS011;4324;42.012;24.872;2023-08-21T05:55:19;8.60;;;7.83;;
8572;SDS011;4324;42.012;24.872;2023-08-21T05:57:46;7.50;;;6.83;;
8572;SDS011;4324;42.012;24.872;2023-08-21T06:00:14;7.43;;;6.70;;
8572;SDS011;4324;42.012;24.872;2023-08-21T06:02:41;8.00;;;7.20;;
8572;SDS011;4324;42.012;24.872;2023-08-21T06:05:08;7.97;;;7.33;;
8572;SDS011;4324;42.012;24.872;2023-08-21T06:07:35;8.13;;;7.40;;
8572;SDS011;4324;42.012;24.872;2023-08-21T06:10:04;11.70;;;10.53;;
8572;SDS011;4324;42.012;24.872;2023-08-21T06:12:32;8.50;;;7.70;;
8572;SDS011;4324;42.012;24.872;2023-08-21T06:14:59;9.23;;;8.17;;
8572;SDS011;4324;42.012;24.872;2023-08-21T06:17:26;9.27;;;8.37;;
8572;SDS011;4324;42.012;24.872;2023-08-21T06:20:14;8.77;;;7.97;;
8572;SDS011;4324;42.012;24.872;2023-08-21T06:23:18;8.00;;;7.37;;
8572;SDS011;4324;42.012;24.872;2023-08-21T06:25:48;8.63;;;7.20;;
8572;SDS011;4324;42.012;24.872;2023-08-21T06:28:15;8.03;;;7.23;;
8572;SDS011;4324;42.012;24.872;2023-08-21T06:30:42;7.67;;;7.07;;
8572;SDS011;4324;42.012;24.872;2023-08-21T06:33:09;7.63;;;7.00;;
8572;SDS011;4324;42.012;24.872;2023-08-21T06:35:36;8.00;;;7.20;;
8572;SDS011;4324;42.012;24.872;2023-08-21T06:38:04;7.47;;;6.77;;
8572;SDS011;4324;42.012;24.872;2023-08-21T06:40:33;7.77;;;7.00;;
8572;SDS011;4324;42.012;24.872;2023-08-21T06:43:02;7.73;;;7.13;;
8572;SDS011;4324;42.012;24.872;2023-08-21T06:45:31;7.27;;;6.77;;
8572;SDS011;4324;42.012;24.872;2023-08-21T06:47:58;9.30;;;6.70;;
8572;SDS011;4324;42.012;24.872;2023-08-21T06:50:25;7.70;;;7.00;;
8572;SDS011;4324;42.012;24.872;2023-08-21T06:52:52;8.90;;;7.47;;
8572;SDS011;4324;42.012;24.872;2023-08-21T06:55:20;8.40;;;7.10;;
8572;SDS011;4324;42.012;24.872;2023-08-21T06:57:49;7.77;;;7.10;;
8572;SDS011;4324;42.012;24.872;2023-08-21T07:00:19;7.40;;;6.70;;
8572;SDS011;4324;42.012;24.872;2023-08-21T07:02:46;7.50;;;6.90;;
8572;SDS011;4324;42.012;24.872;2023-08-21T07:05:13;8.43;;;7.53;;
8572;SDS011;4324;42.012;24.872;2023-08-21T07:07:40;7.27;;;6.60;;
8572;SDS011;4324;42.012;24.872;2023-08-21T07:10:08;8.50;;;7.60;;
8572;SDS011;4324;42.012;24.872;2023-08-21T07:12:35;7.30;;;6.77;;
8572;SDS011;4324;42.012;24.872;2023-08-21T07:15:02;9.80;;;7.30;;
8572;SDS011;4324;42.012;24.872;2023-08-21T07:17:31;8.50;;;7.70;;
8572;SDS011;4324;42.012;24.872;2023-08-21T07:19:58;10.10;;;9.10;;
8572;SDS011;4324;42.012;24.872;2023-08-21T07:22:29;8.77;;;7.70;;
8572;SDS011;4324;42.012;24.872;2023-08-21T07:24:56;16.15;;;14.75;;
8572;SDS011;4324;42.012;24.872;2023-08-21T07:27:28;15.77;;;14.27;;
8572;SDS011;4324;42.012;24.872;2023-08-21T07:29:58;15.10;;;13.80;;
8572;SDS011;4324;42.012;24.872;2023-08-21T07:32:25;8.85;;;8.15;;
8572;SDS011;4324;42.012;24.872;2023-08-21T07:34:53;8.05;;;7.25;;
8572;SDS011;4324;42.012;24.872;2023-08-21T07:37:20;10.32;;;9.27;;
8572;SDS011;4324;42.012;24.872;2023-08-21T07:39:51;8.25;;;7.43;;
8572;SDS011;4324;42.012;24.872;2023-08-21T07:42:19;9.45;;;7.40;;
8572;SDS011;4324;42.012;24.872;2023-08-21T07:44:46;9.80;;;8.47;;
8572;SDS011;4324;42.012;24.872;2023-08-21T07:47:13;7.40;;;6.65;;
8572;SDS011;4324;42.012;24.872;2023-08-21T07:49:40;9.27;;;8.38;;
8572;SDS011;4324;42.012;24.872;2023-08-21T07:52:08;8.60;;;7.30;;
8572;SDS011;4324;42.012;24.872;2023-08-21T07:54:35;8.38;;;6.13;;
8572;SDS011;4324;42.012;24.872;2023-08-21T07:57:06;7.40;;;6.70;;
8572;SDS011;4324;42.012;24.872;2023-08-21T07:59:33;7.45;;;6.70;;
8572;SDS011;4324;42.012;24.872;2023-08-21T08:02:01;8.60;;;6.68;;
8572;SDS011;4324;42.012;24.872;2023-08-21T08:04:29;10.73;;;8.63;;
8572;SDS011;4324;42.012;24.872;2023-08-21T08:06:56;7.40;;;6.72;;
8572;SDS011;4324;42.012;24.872;2023-08-21T08:09:24;8.00;;;7.30;;
8572;SDS011;4324;42.012;24.872;2023-08-21T08:11:51;7.85;;;7.10;;
8572;SDS011;4324;42.012;24.872;2023-08-21T08:14:18;6.93;;;6.22;;
8572;SDS011;4324;42.012;24.872;2023-08-21T08:16:45;9.32;;;6.95;;
8572;SDS011;4324;42.012;24.872;2023-08-21T08:19:19;6.80;;;6.20;;
8572;SDS011;4324;42.012;24.872;2023-08-21T08:21:52;9.98;;;8.98;;
8572;SDS011;4324;42.012;24.872;2023-08-21T08:24:29;7.13;;;6.45;;
8572;SDS011;4324;42.012;24.872;2023-08-21T08:26:56;8.43;;;6.75;;
8572;SDS011;4324;42.012;24.872;2023-08-21T08:29:23;9.70;;;7.22;;
8572;SDS011;4324;42.012;24.872;2023-08-21T08:31:50;8.32;;;7.45;;
8572;SDS011;4324;42.012;24.872;2023-08-21T08:34:17;8.38;;;6.47;;
8572;SDS011;4324;42.012;24.872;2023-08-21T08:36:45;8.70;;;7.68;;
8572;SDS011;4324;42.012;24.872;2023-08-21T08:39:12;7.05;;;6.45;;
8572;SDS011;4324;42.012;24.872;2023-08-21T08:41:43;7.88;;;7.20;;
8572;SDS011;4324;42.012;24.872;2023-08-21T08:44:17;8.50;;;7.63;;
8572;SDS011;4324;42.012;24.872;2023-08-21T08:47:06;9.80;;;7.28;;
8572;SDS011;4324;42.012;24.872;2023-08-21T08:49:34;8.00;;;6.90;;
8572;SDS011;4324;42.012;24.872;2023-08-21T08:52:08;8.45;;;7.63;;
8572;SDS011;4324;42.012;24.872;2023-08-21T08:54:52;7.53;;;6.93;;
8572;SDS011;4324;42.012;24.872;2023-08-21T08:57:22;8.98;;;8.07;;
8572;SDS011;4324;42.012;24.872;2023-08-21T08:59:53;8.38;;;7.55;;
8572;SDS011;4324;42.012;24.872;2023-08-21T09:02:24;9.05;;;8.25;;
8572;SDS011;4324;42.012;24.872;2023-08-21T09:04:51;7.95;;;7.35;;
8572;SDS011;4324;42.012;24.872;2023-08-21T09:07:23;7.72;;;7.03;;
8572;SDS011;4324;42.012;24.872;2023-08-21T09:09:53;9.23;;;8.50;;
8572;SDS011;4324;42.012;24.872;2023-08-21T09:12:20;7.75;;;7.15;;
8572;SDS011;4324;42.012;24.872;2023-08-21T09:14:48;7.68;;;7.15;;
8572;SDS011;4324;42.012;24.872;2023-08-21T09:17:15;8.20;;;7.28;;
8572;SDS011;4324;42.012;24.872;2023-08-21T09:19:43;7.80;;;7.15;;
8572;SDS011;4324;42.012;24.872;2023-08-21T09:22:11;8.02;;;6.88;;
8572;SDS011;4324;42.012;24.872;2023-08-21T09:24:40;7.40;;;6.90;;
8572;SDS011;4324;42.012;24.872;2023-08-21T09:27:25;9.77;;;8.98;;
8572;SDS011;4324;42.012;24.872;2023-08-21T09:29:54;14.10;;;12.90;;
8572;SDS011;4324;42.012;24.872;2023-08-21T09:32:20;8.20;;;7.60;;
8572;SDS011;4324;42.012;24.872;2023-08-21T09:34:47;9.52;;;8.73;;
8572;SDS011;4324;42.012;24.872;2023-08-21T09:37:16;7.25;;;6.55;;
8572;SDS011;4324;42.012;24.872;2023-08-21T09:39:43;8.18;;;7.47;;
8572;SDS011;4324;42.012;24.872;2023-08-21T09:42:13;7.20;;;6.55;;
8572;SDS011;4324;42.012;24.872;2023-08-21T09:44:41;8.27;;;7.38;;
8572;SDS011;4324;42.012;24.872;2023-08-21T09:47:10;8.02;;;7.22;;
8572;SDS011;4324;42.012;24.872;2023-08-21T09:49:38;8.07;;;7.22;;
8572;SDS011;4324;42.012;24.872;2023-08-21T09:52:06;7.43;;;6.72;;
8572;SDS011;4324;42.012;24.872;2023-08-21T09:54:35;9.23;;;8.25;;
8572;SDS011;4324;42.012;24.872;2023-08-21T09:57:03;8.07;;;7.25;;
8572;SDS011;4324;42.012;24.872;2023-08-21T09:59:31;8.90;;;8.20;;
8572;SDS011;4324;42.012;24.872;2023-08-21T10:01:58;6.88;;;6.38;;
8572;SDS011;4324;42.012;24.872;2023-08-21T10:04:28;9.45;;;7.28;;
8572;SDS011;4324;42.012;24.872;2023-08-21T10:06:56;8.00;;;7.20;;
8572;SDS011;4324;42.012;24.872;2023-08-21T10:09:24;8.07;;;7.28;;
8572;SDS011;4324;42.012;24.872;2023-08-21T10:11:53;7.55;;;6.85;;
8572;SDS011;4324;42.012;24.872;2023-08-21T10:14:21;6.75;;;6.25;;
8572;SDS011;4324;42.012;24.872;2023-08-21T10:16:50;7.00;;;6.38;;
8572;SDS011;4324;42.012;24.872;2023-08-21T10:19:18;6.70;;;6.20;;
8572;SDS011;4324;42.012;24.872;2023-08-21T10:21:47;7.18;;;6.68;;
8572;SDS011;4324;42.012;24.872;2023-08-21T10:24:25;7.10;;;6.50;;
8572;SDS011;4324;42.012;24.872;2023-08-21T10:26:53;6.60;;;6.13;;
8572;SDS011;4324;42.012;24.872;2023-08-21T10:29:20;7.30;;;6.70;;
8572;SDS011;4324;42.012;24.872;2023-08-21T10:31:47;7.10;;;6.43;;
8572;SDS011;4324;42.012;24.872;2023-08-21T10:34:30;9.10;;;7.65;;
8572;SDS011;4324;42.012;24.872;2023-08-21T10:37:09;8.40;;;7.47;;
8572;SDS011;4324;42.012;24.872;2023-08-21T10:39:38;8.63;;;7.80;;
8572;SDS011;4324;42.012;24.872;2023-08-21T10:42:06;8.35;;;6.90;;
8572;SDS011;4324;42.012;24.872;2023-08-21T10:44:35;7.20;;;6.50;;
8572;SDS011;4324;42.012;24.872;2023-08-21T10:47:13;7.00;;;6.50;;
8572;SDS011;4324;42.012;24.872;2023-08-21T10:49:45;5.95;;;5.45;;
8572;SDS011;4324;42.012;24.872;2023-08-21T10:52:14;7.78;;;6.53;;
8572;SDS011;4324;42.012;24.872;2023-08-21T10:54:47;7.00;;;5.93;;
8572;SDS011;4324;42.012;24.872;2023-08-21T10:57:14;6.63;;;5.95;;
8572;SDS011;4324;42.012;24.872;2023-08-21T10:59:54;8.13;;;7.40;;
8572;SDS011;4324;42.012;24.872;2023-08-21T11:02:22;6.13;;;5.53;;
8572;SDS011;4324;42.012;24.872;2023-08-21T11:04:50;6.38;;;5.80;;
8572;SDS011;4324;42.012;24.872;2023-08-21T11:07:18;6.63;;;5.80;;
8572;SDS011;4324;42.012;24.872;2023-08-21T11:09:46;7.90;;;6.25;;
8572;SDS011;4324;42.012;24.872;2023-08-21T11:12:14;7.15;;;6.53;;
8572;SDS011;4324;42.012;24.872;2023-08-21T11:14:43;7.05;;;6.32;;
8572;SDS011;4324;42.012;24.872;2023-08-21T11:17:10;7.40;;;6.80;;
8572;SDS011;4324;42.012;24.872;2023-08-21T11:19:38;7.20;;;6.00;;
8572;SDS011;4324;42.012;24.872;2023-08-21T11:22:06;7.47;;;6.30;;
8572;SDS011;4324;42.012;24.872;2023-08-21T11:24:44;8.05;;;6.22;;
8572;SDS011;4324;42.012;24.872;2023-08-21T11:27:14;6.43;;;5.82;;
8572;SDS011;4324;42.012;24.872;2023-08-21T11:29:43;9.60;;;5.75;;
8572;SDS011;4324;42.012;24.872;2023-08-21T11:32:12;8.57;;;6.65;;
8572;SDS011;4324;42.012;24.872;2023-08-21T11:34:40;6.72;;;6.13;;
8572;SDS011;4324;42.012;24.872;2023-08-21T11:37:07;8.65;;;6.40;;
8572;SDS011;4324;42.012;24.872;2023-08-21T11:39:38;7.82;;;5.90;;
8572;SDS011;4324;42.012;24.872;2023-08-21T11:42:10;6.85;;;6.18;;
8572;SDS011;4324;42.012;24.872;2023-08-21T11:44:45;6.15;;;4.82;;
8572;SDS011;4324;42.012;24.872;2023-08-21T11:47:13;8.02;;;5.15;;
8572;SDS011;4324;42.012;24.872;2023-08-21T11:49:41;9.75;;;5.75;;
8572;SDS011;4324;42.012;24.872;2023-08-21T11:52:09;6.35;;;5.60;;
8572;SDS011;4324;42.012;24.872;2023-08-21T11:54:37;6.38;;;5.55;;
8572;SDS011;4324;42.012;24.872;2023-08-21T11:57:06;6.30;;;5.70;;
8572;SDS011;4324;42.012;24.872;2023-08-21T11:59:36;6.38;;;5.70;;
8572;SDS011;4324;42.012;24.872;2023-08-21T12:02:09;5.78;;;5.28;;
8572;SDS011;4324;42.012;24.872;2023-08-21T12:04:40;5.35;;;4.95;;
8572;SDS011;4324;42.012;24.872;2023-08-21T12:07:07;5.35;;;4.90;;
8572;SDS011;4324;42.012;24.872;2023-08-21T12:09:34;6.32;;;5.35;;
8572;SDS011;4324;42.012;24.872;2023-08-21T12:12:01;5.30;;;4.70;;
8572;SDS011;4324;42.012;24.872;2023-08-21T12:14:28;5.30;;;4.88;;
8572;SDS011;4324;42.012;24.872;2023-08-21T12:16:57;5.88;;;5.38;;
8572;SDS011;4324;42.012;24.872;2023-08-21T12:19:24;6.18;;;5.57;;
8572;SDS011;4324;42.012;24.872;2023-08-21T12:21:51;6.43;;;5.82;;
8572;SDS011;4324;42.012;24.872;2023-08-21T12:24:18;5.55;;;5.05;;
8572;SDS011;4324;42.012;24.872;2023-08-21T12:26:45;5.97;;;4.68;;
8572;SDS011;4324;42.012;24.872;2023-08-21T12:29:12;5.57;;;5.07;;
8572;SDS011;4324;42.012;24.872;2023-08-21T12:31:39;6.40;;;5.63;;
8572;SDS011;4324;42.012;24.872;2023-08-21T12:34:07;6.07;;;5.55;;
8572;SDS011;4324;42.012;24.872;2023-08-21T12:36:34;6.15;;;5.53;;
8572;SDS011;4324;42.012;24.872;2023-08-21T12:39:03;8.32;;;6.22;;
8572;SDS011;4324;42.012;24.872;2023-08-21T12:41:30;6.10;;;5.30;;
8572;SDS011;4324;42.012;24.872;2023-08-21T12:43:58;6.68;;;5.30;;
8572;SDS011;4324;42.012;24.872;2023-08-21T12:46:25;7.63;;;5.70;;
8572;SDS011;4324;42.012;24.872;2023-08-21T12:48:52;7.15;;;6.22;;
8572;SDS011;4324;42.012;24.872;2023-08-21T12:51:21;6.65;;;6.13;;
8572;SDS011;4324;42.012;24.872;2023-08-21T12:53:48;7.85;;;7.07;;
8572;SDS011;4324;42.012;24.872;2023-08-21T12:56:16;8.68;;;7.68;;
8572;SDS011;4324;42.012;24.872;2023-08-21T12:58:43;7.38;;;6.68;;
8572;SDS011;4324;42.012;24.872;2023-08-21T13:01:10;7.60;;;6.43;;
8572;SDS011;4324;42.012;24.872;2023-08-21T13:03:37;6.82;;;5.70;;
8572;SDS011;4324;42.012;24.872;2023-08-21T13:06:04;6.85;;;5.80;;
8572;SDS011;4324;42.012;24.872;2023-08-21T13:08:33;7.03;;;6.43;;
8572;SDS011;4324;42.012;24.872;2023-08-21T13:11:00;7.22;;;5.75;;
8572;SDS011;4324;42.012;24.872;2023-08-21T13:13:28;7.20;;;6.60;;
8572;SDS011;4324;42.012;24.872;2023-08-21T13:15:55;7.63;;;6.75;;
8572;SDS011;4324;42.012;24.872;2023-08-21T13:18:22;6.90;;;5.95;;
8572;SDS011;4324;42.012;24.872;2023-08-21T13:20:49;7.03;;;6.32;;
8572;SDS011;4324;42.012;24.872;2023-08-21T13:23:16;7.32;;;6.53;;
8572;SDS011;4324;42.012;24.872;2023-08-21T13:25:44;7.38;;;5.60;;
8572;SDS011;4324;42.012;24.872;2023-08-21T13:28:11;6.43;;;5.93;;
8572;SDS011;4324;42.012;24.872;2023-08-21T13:30:38;6.07;;;5.47;;
8572;SDS011;4324;42.012;24.872;2023-08-21T13:33:05;6.40;;;5.88;;
8572;SDS011;4324;42.012;24.872;2023-08-21T13:35:33;6.32;;;5.72;;
8572;SDS011;4324;42.012;24.872;2023-08-21T13:38:00;6.13;;;5.53;;
8572;SDS011;4324;42.012;24.872;2023-08-21T13:40:28;9.82;;;6.53;;
8572;SDS011;4324;42.012;24.872;2023-08-21T13:42:57;7.50;;;6.85;;
8572;SDS011;4324;42.012;24.872;2023-08-21T13:45:25;6.30;;;5.75;;
8572;SDS011;4324;42.012;24.872;2023-08-21T13:47:52;8.43;;;6.45;;
8572;SDS011;4324;42.012;24.872;2023-08-21T13:50:19;6.95;;;6.35;;
8572;SDS011;4324;42.012;24.872;2023-08-21T13:52:46;7.80;;;6.53;;
8572;SDS011;4324;42.012;24.872;2023-08-21T13:55:14;7.03;;;6.47;;
8572;SDS011;4324;42.012;24.872;2023-08-21T13:57:41;7.43;;;6.82;;
8572;SDS011;4324;42.012;24.872;2023-08-21T14:00:11;7.63;;;6.95;;
8572;SDS011;4324;42.012;24.872;2023-08-21T14:02:38;8.27;;;7.32;;
8572;SDS011;4324;42.012;24.872;2023-08-21T14:05:06;7.47;;;6.88;;
8572;SDS011;4324;42.012;24.872;2023-08-21T14:07:35;8.27;;;7.50;;
8572;SDS011;4324;42.012;24.872;2023-08-21T14:10:03;9.85;;;8.55;;
8572;SDS011;4324;42.012;24.872;2023-08-21T14:12:31;7.30;;;6.15;;
8572;SDS011;4324;42.012;24.872;2023-08-21T14:14:58;6.32;;;5.72;;
8572;SDS011;4324;42.012;24.872;2023-08-21T14:17:27;6.63;;;5.93;;
8572;SDS011;4324;42.012;24.872;2023-08-21T14:19:54;7.82;;;6.20;;
8572;SDS011;4324;42.012;24.872;2023-08-21T14:22:21;6.38;;;5.70;;
8572;SDS011;4324;42.012;24.872;2023-08-21T14:24:48;7.03;;;6.13;;
8572;SDS011;4324;42.012;24.872;2023-08-21T14:27:15;7.60;;;6.90;;
8572;SDS011;4324;42.012;24.872;2023-08-21T14:29:42;8.18;;;7.32;;
8572;SDS011;4324;42.012;24.872;2023-08-21T14:32:10;6.75;;;6.00;;
8572;SDS011;4324;42.012;24.872;2023-08-21T14:34:38;7.45;;;6.78;;
8572;SDS011;4324;42.012;24.872;2023-08-21T14:37:05;6.22;;;5.50;;
8572;SDS011;4324;42.012;24.872;2023-08-21T14:39:32;6.43;;;5.80;;
8572;SDS011;4324;42.012;24.872;2023-08-21T14:41:59;6.07;;;5.60;;
8572;SDS011;4324;42.012;24.872;2023-08-21T14:44:26;6.03;;;5.53;;
8572;SDS011;4324;42.012;24.872;2023-08-21T14:46:53;5.95;;;5.40;;
8572;SDS011;4324;42.012;24.872;2023-08-21T14:49:21;6.47;;;5.88;;
8572;SDS011;4324;42.012;24.872;2023-08-21T14:51:49;6.82;;;6.18;;
8572;SDS011;4324;42.012;24.872;2023-08-21T14:54:17;9.68;;;6.57;;
8572;SDS011;4324;42.012;24.872;2023-08-21T14:56:44;25.50;;;7.97;;
8572;SDS011;4324;42.012;24.872;2023-08-21T14:59:11;6.90;;;6.10;;
8572;SDS011;4324;42.012;24.872;2023-08-21T15:01:39;5.82;;;5.43;;
8572;SDS011;4324;42.012;24.872;2023-08-21T15:04:07;6.35;;;5.85;;
8572;SDS011;4324;42.012;24.872;2023-08-21T15:06:34;7.20;;;6.25;;
8572;SDS011;4324;42.012;24.872;2023-08-21T15:09:03;8.07;;;5.93;;
8572;SDS011;4324;42.012;24.872;2023-08-21T15:11:31;6.45;;;5.78;;
8572;SDS011;4324;42.012;24.872;2023-08-21T15:14:00;6.97;;;5.65;;
8572;SDS011;4324;42.012;24.872;2023-08-21T15:16:30;6.80;;;6.20;;
8572;SDS011;4324;42.012;24.872;2023-08-21T15:18:57;7.40;;;6.70;;
8572;SDS011;4324;42.012;24.872;2023-08-21T15:21:26;7.20;;;6.50;;